sensor_id;sensor_type;location;lat;lon;timestamp;temperature;humidity
44886;DHT22;36669;51.428;21.162;2023-10-19T00:02:09;0.50;99.90
44886;DHT22;36669;51.428;21.162;2023-10-19T00:04:42;0.50;99.90
44886;DHT22;36669;51.428;21.162;2023-10-19T00:07:13;0.40;99.90
44886;DHT22;36669;51.428;21.162;2023-10-19T00:09:42;0.30;99.90
44886;DHT22;36669;51.428;21.162;2023-10-19T00:12:13;0.40;99.90
44886;DHT22;36669;51.428;21.162;2023-10-19T00:14:43;0.30;99.90
44886;DHT22;36669;51.428;21.162;2023-10-19T00:17:10;0.30;99.90
44886;DHT22;36669;51.428;21.162;2023-10-19T00:19:38;0.30;99.90
44886;DHT22;36669;51.428;21.162;2023-10-19T00:22:25;0.30;99.90
44886;DHT22;36669;51.428;21.162;2023-10-19T00:24:51;0.30;99.90
44886;DHT22;36669;51.428;21.162;2023-10-19T00:27:18;0.40;99.90
44886;DHT22;36669;51.428;21.162;2023-10-19T00:29:47;0.30;99.90
44886;DHT22;36669;51.428;21.162;2023-10-19T00:32:22;0.30;99.90
44886;DHT22;36669;51.428;21.162;2023-10-19T00:34:54;0.30;99.90
44886;DHT22;36669;51.428;21.162;2023-10-19T00:37:23;0.30;99.90
44886;DHT22;36669;51.428;21.162;2023-10-19T00:39:54;0.30;99.90
44886;DHT22;36669;51.428;21.162;2023-10-19T00:42:23;0.30;99.90
44886;DHT22;36669;51.428;21.162;2023-10-19T00:44:59;0.20;99.90
44886;DHT22;36669;51.428;21.162;2023-10-19T00:47:30;0.20;99.90
44886;DHT22;36669;51.428;21.162;2023-10-19T00:50:08;0.20;99.90
44886;DHT22;36669;51.428;21.162;2023-10-19T00:52:44;0.20;99.90
44886;DHT22;36669;51.428;21.162;2023-10-19T00:55:17;0.20;99.90
44886;DHT22;36669;51.428;21.162;2023-10-19T00:57:55;0.10;99.90
44886;DHT22;36669;51.428;21.162;2023-10-19T01:00:25;0.10;99.90
44886;DHT22;36669;51.428;21.162;2023-10-19T01:03:06;0.10;99.90
44886;DHT22;36669;51.428;21.162;2023-10-19T01:05:35;0.10;99.90
44886;DHT22;36669;51.428;21.162;2023-10-19T01:08:04;0.00;99.90
44886;DHT22;36669;51.428;21.162;2023-10-19T01:10:51;0.10;99.90
44886;DHT22;36669;51.428;21.162;2023-10-19T01:13:18;0.00;99.90
44886;DHT22;36669;51.428;21.162;2023-10-19T01:15:57;0.00;99.90
44886;DHT22;36669;51.428;21.162;2023-10-19T01:18:24;0.00;99.90
44886;DHT22;36669;51.428;21.162;2023-10-19T01:20:56;0.00;99.90
44886;DHT22;36669;51.428;21.162;2023-10-19T01:23:23;0.00;99.90
44886;DHT22;36669;51.428;21.162;2023-10-19T01:25:57;-0.10;99.90
44886;DHT22;36669;51.428;21.162;2023-10-19T01:28:29;-0.20;99.90
44886;DHT22;36669;51.428;21.162;2023-10-19T01:31:26;-0.10;99.90
44886;DHT22;36669;51.428;21.162;2023-10-19T01:34:06;-0.10;99.90
44886;DHT22;36669;51.428;21.162;2023-10-19T01:36:38;-0.10;99.90
44886;DHT22;36669;51.428;21.162;2023-10-19T01:39:12;-0.10;99.90
44886;DHT22;36669;51.428;21.162;2023-10-19T01:41:41;-0.10;99.90
44886;DHT22;36669;51.428;21.162;2023-10-19T01:44:09;0.00;99.90
44886;DHT22;36669;51.428;21.162;2023-10-19T01:46:41;0.00;99.90
44886;DHT22;36669;51.428;21.162;2023-10-19T01:49:19;-0.10;99.90
44886;DHT22;36669;51.428;21.162;2023-10-19T01:51:57;-0.10;99.90
44886;DHT22;36669;51.428;21.162;2023-10-19T01:54:23;0.00;99.90
44886;DHT22;36669;51.428;21.162;2023-10-19T01:56:58;0.00;99.90
44886;DHT22;36669;51.428;21.162;2023-10-19T01:59:26;-0.10;99.90
44886;DHT22;36669;51.428;21.162;2023-10-19T02:02:02;-0.10;99.90
44886;DHT22;36669;51.428;21.162;2023-10-19T02:04:28;-0.20;99.90
44886;DHT22;36669;51.428;21.162;2023-10-19T02:06:57;-0.20;99.90
44886;DHT22;36669;51.428;21.162;2023-10-19T02:09:27;-0.20;99.90
44886;DHT22;36669;51.428;21.162;2023-10-19T02:11:56;-0.20;99.90
44886;DHT22;36669;51.428;21.162;2023-10-19T02:14:25;-0.30;99.90
44886;DHT22;36669;51.428;21.162;2023-10-19T02:16:54;-0.20;99.90
44886;DHT22;36669;51.428;21.162;2023-10-19T02:19:26;-0.10;99.90
44886;DHT22;36669;51.428;21.162;2023-10-19T02:22:00;0.00;99.90
44886;DHT22;36669;51.428;21.162;2023-10-19T02:24:29;0.10;99.90
44886;DHT22;36669;51.428;21.162;2023-10-19T02:26:58;0.20;99.90
44886;DHT22;36669;51.428;21.162;2023-10-19T02:29:26;0.30;99.90
44886;DHT22;36669;51.428;21.162;2023-10-19T02:31:53;0.50;99.90
44886;DHT22;36669;51.428;21.162;2023-10-19T02:34:22;0.60;99.90
44886;DHT22;36669;51.428;21.162;2023-10-19T02:36:51;0.50;99.90
44886;DHT22;36669;51.428;21.162;2023-10-19T02:39:17;0.50;99.90
44886;DHT22;36669;51.428;21.162;2023-10-19T02:41:47;0.60;99.90
44886;DHT22;36669;51.428;21.162;2023-10-19T02:44:18;0.60;99.90
44886;DHT22;36669;51.428;21.162;2023-10-19T02:46:54;0.70;99.90
44886;DHT22;36669;51.428;21.162;2023-10-19T02:49:25;0.70;99.90
44886;DHT22;36669;51.428;21.162;2023-10-19T02:51:54;0.70;99.90
44886;DHT22;36669;51.428;21.162;2023-10-19T02:54:24;0.80;99.90
44886;DHT22;36669;51.428;21.162;2023-10-19T02:57:11;0.80;99.90
44886;DHT22;36669;51.428;21.162;2023-10-19T02:59:41;0.90;99.90
44886;DHT22;36669;51.428;21.162;2023-10-19T03:02:07;0.90;99.90
44886;DHT22;36669;51.428;21.162;2023-10-19T03:04:40;0.90;99.90
44886;DHT22;36669;51.428;21.162;2023-10-19T03:07:09;0.90;99.90
44886;DHT22;36669;51.428;21.162;2023-10-19T03:09:35;0.90;99.90
44886;DHT22;36669;51.428;21.162;2023-10-19T03:12:03;0.90;99.90
44886;DHT22;36669;51.428;21.162;2023-10-19T03:14:44;1.00;99.90
44886;DHT22;36669;51.428;21.162;2023-10-19T03:17:16;1.00;99.90
44886;DHT22;36669;51.428;21.162;2023-10-19T03:19:43;1.00;99.90
44886;DHT22;36669;51.428;21.162;2023-10-19T03:22:10;0.90;99.90
44886;DHT22;36669;51.428;21.162;2023-10-19T03:24:39;0.90;99.90
44886;DHT22;36669;51.428;21.162;2023-10-19T03:27:15;0.90;99.90
44886;DHT22;36669;51.428;21.162;2023-10-19T03:29:45;1.00;99.90
44886;DHT22;36669;51.428;21.162;2023-10-19T03:32:15;0.80;99.90
44886;DHT22;36669;51.428;21.162;2023-10-19T03:34:48;0.80;99.90
44886;DHT22;36669;51.428;21.162;2023-10-19T03:37:16;0.80;99.90
44886;DHT22;36669;51.428;21.162;2023-10-19T03:39:46;0.90;99.90
44886;DHT22;36669;51.428;21.162;2023-10-19T03:42:14;0.90;99.90
44886;DHT22;36669;51.428;21.162;2023-10-19T03:44:42;1.00;99.90
44886;DHT22;36669;51.428;21.162;2023-10-19T03:47:09;1.00;99.90
44886;DHT22;36669;51.428;21.162;2023-10-19T03:49:49;1.00;99.90
44886;DHT22;36669;51.428;21.162;2023-10-19T03:52:15;1.00;99.90
44886;DHT22;36669;51.428;21.162;2023-10-19T03:54:43;1.10;99.90
44886;DHT22;36669;51.428;21.162;2023-10-19T03:57:12;1.10;99.90
44886;DHT22;36669;51.428;21.162;2023-10-19T03:59:41;1.20;99.90
44886;DHT22;36669;51.428;21.162;2023-10-19T04:02:08;1.10;99.90
44886;DHT22;36669;51.428;21.162;2023-10-19T04:05:01;1.20;99.90
44886;DHT22;36669;51.428;21.162;2023-10-19T04:07:31;1.20;99.90
44886;DHT22;36669;51.428;21.162;2023-10-19T04:09:59;1.20;99.90
44886;DHT22;36669;51.428;21.162;2023-10-19T04:12:56;1.20;99.90
44886;DHT22;36669;51.428;21.162;2023-10-19T04:15:30;1.20;99.90
44886;DHT22;36669;51.428;21.162;2023-10-19T04:18:04;1.20;99.90
44886;DHT22;36669;51.428;21.162;2023-10-19T04:20:38;1.20;99.90
44886;DHT22;36669;51.428;21.162;2023-10-19T04:23:25;1.20;99.90
44886;DHT22;36669;51.428;21.162;2023-10-19T04:25:56;1.20;99.90
44886;DHT22;36669;51.428;21.162;2023-10-19T04:28:24;1.20;99.90
44886;DHT22;36669;51.428;21.162;2023-10-19T04:31:11;1.20;99.90
44886;DHT22;36669;51.428;21.162;2023-10-19T04:33:42;1.20;99.90
44886;DHT22;36669;51.428;21.162;2023-10-19T04:36:14;1.20;99.90
44886;DHT22;36669;51.428;21.162;2023-10-19T04:38:42;1.30;99.90
44886;DHT22;36669;51.428;21.162;2023-10-19T04:41:10;1.30;99.90
44886;DHT22;36669;51.428;21.162;2023-10-19T04:43:38;1.20;99.90
44886;DHT22;36669;51.428;21.162;2023-10-19T04:46:09;1.20;99.90
44886;DHT22;36669;51.428;21.162;2023-10-19T04:48:41;1.30;99.90
44886;DHT22;36669;51.428;21.162;2023-10-19T04:51:09;1.30;99.90
44886;DHT22;36669;51.428;21.162;2023-10-19T04:53:37;1.30;99.90
44886;DHT22;36669;51.428;21.162;2023-10-19T04:56:06;1.30;99.90
44886;DHT22;36669;51.428;21.162;2023-10-19T04:58:34;1.30;99.90
44886;DHT22;36669;51.428;21.162;2023-10-19T05:01:03;1.30;99.90
44886;DHT22;36669;51.428;21.162;2023-10-19T05:03:34;1.30;99.90
44886;DHT22;36669;51.428;21.162;2023-10-19T05:06:03;1.30;99.90
44886;DHT22;36669;51.428;21.162;2023-10-19T05:08:30;1.30;99.90
44886;DHT22;36669;51.428;21.162;2023-10-19T05:10:58;1.30;99.90
44886;DHT22;36669;51.428;21.162;2023-10-19T05:13:32;1.30;99.90
44886;DHT22;36669;51.428;21.162;2023-10-19T05:16:00;1.30;99.90
44886;DHT22;36669;51.428;21.162;2023-10-19T05:18:27;1.40;99.90
44886;DHT22;36669;51.428;21.162;2023-10-19T05:20:56;1.40;99.90
44886;DHT22;36669;51.428;21.162;2023-10-19T05:23:25;1.30;99.90
44886;DHT22;36669;51.428;21.162;2023-10-19T05:26:02;1.30;99.90
44886;DHT22;36669;51.428;21.162;2023-10-19T05:28:31;1.30;99.90
44886;DHT22;36669;51.428;21.162;2023-10-19T05:30:59;1.30;99.90
44886;DHT22;36669;51.428;21.162;2023-10-19T05:33:29;1.40;99.90
44886;DHT22;36669;51.428;21.162;2023-10-19T05:35:56;1.40;99.90
44886;DHT22;36669;51.428;21.162;2023-10-19T05:38:23;1.40;99.90
44886;DHT22;36669;51.428;21.162;2023-10-19T05:40:51;1.40;99.90
44886;DHT22;36669;51.428;21.162;2023-10-19T05:43:20;1.50;99.90
44886;DHT22;36669;51.428;21.162;2023-10-19T05:45:48;1.50;99.90
44886;DHT22;36669;51.428;21.162;2023-10-19T05:48:16;1.60;99.90
44886;DHT22;36669;51.428;21.162;2023-10-19T05:50:45;1.60;99.90
44886;DHT22;36669;51.428;21.162;2023-10-19T05:53:13;1.60;99.90
44886;DHT22;36669;51.428;21.162;2023-10-19T05:55:45;1.60;99.90
44886;DHT22;36669;51.428;21.162;2023-10-19T05:58:13;1.60;99.90
44886;DHT22;36669;51.428;21.162;2023-10-19T06:00:39;1.70;99.90
44886;DHT22;36669;51.428;21.162;2023-10-19T06:03:06;1.70;99.90
44886;DHT22;36669;51.428;21.162;2023-10-19T06:05:33;1.80;99.90
44886;DHT22;36669;51.428;21.162;2023-10-19T06:08:00;1.90;99.90
44886;DHT22;36669;51.428;21.162;2023-10-19T06:10:28;2.00;99.90
44886;DHT22;36669;51.428;21.162;2023-10-19T06:12:55;2.00;99.90
44886;DHT22;36669;51.428;21.162;2023-10-19T06:15:24;2.10;99.90
44886;DHT22;36669;51.428;21.162;2023-10-19T06:17:51;2.10;99.90
44886;DHT22;36669;51.428;21.162;2023-10-19T06:20:19;2.20;99.90
44886;DHT22;36669;51.428;21.162;2023-10-19T06:22:47;2.20;99.90
44886;DHT22;36669;51.428;21.162;2023-10-19T06:25:17;2.30;99.90
44886;DHT22;36669;51.428;21.162;2023-10-19T06:27:52;2.40;99.90
44886;DHT22;36669;51.428;21.162;2023-10-19T06:30:23;2.30;99.90
44886;DHT22;36669;51.428;21.162;2023-10-19T06:32:52;2.40;99.90
44886;DHT22;36669;51.428;21.162;2023-10-19T06:35:20;2.40;99.90
44886;DHT22;36669;51.428;21.162;2023-10-19T06:37:46;2.50;99.90
44886;DHT22;36669;51.428;21.162;2023-10-19T06:40:13;2.60;99.90
44886;DHT22;36669;51.428;21.162;2023-10-19T06:42:49;2.70;99.90
44886;DHT22;36669;51.428;21.162;2023-10-19T06:45:20;2.80;99.90
44886;DHT22;36669;51.428;21.162;2023-10-19T06:47:48;2.90;99.90
44886;DHT22;36669;51.428;21.162;2023-10-19T06:50:17;3.00;99.90
44886;DHT22;36669;51.428;21.162;2023-10-19T06:52:46;3.20;99.90
44886;DHT22;36669;51.428;21.162;2023-10-19T06:55:15;3.30;99.90
44886;DHT22;36669;51.428;21.162;2023-10-19T06:57:51;3.40;99.90
44886;DHT22;36669;51.428;21.162;2023-10-19T07:00:22;3.40;99.90
44886;DHT22;36669;51.428;21.162;2023-10-19T07:02:50;3.50;99.90
44886;DHT22;36669;51.428;21.162;2023-10-19T07:05:23;3.70;99.90
44886;DHT22;36669;51.428;21.162;2023-10-19T07:07:57;3.80;99.90
44886;DHT22;36669;51.428;21.162;2023-10-19T07:10:27;4.00;99.90
44886;DHT22;36669;51.428;21.162;2023-10-19T07:12:56;4.10;99.90
44886;DHT22;36669;51.428;21.162;2023-10-19T07:15:24;4.30;99.90
44886;DHT22;36669;51.428;21.162;2023-10-19T07:17:51;4.40;99.90
44886;DHT22;36669;51.428;21.162;2023-10-19T07:20:21;4.50;99.90
44886;DHT22;36669;51.428;21.162;2023-10-19T07:23:05;4.70;99.90
44886;DHT22;36669;51.428;21.162;2023-10-19T07:25:37;4.80;99.90
44886;DHT22;36669;51.428;21.162;2023-10-19T07:28:10;5.00;99.90
44886;DHT22;36669;51.428;21.162;2023-10-19T07:30:38;5.10;99.90
44886;DHT22;36669;51.428;21.162;2023-10-19T07:33:05;5.20;99.90
44886;DHT22;36669;51.428;21.162;2023-10-19T07:35:36;5.30;99.90
44886;DHT22;36669;51.428;21.162;2023-10-19T07:38:09;5.40;99.90
44886;DHT22;36669;51.428;21.162;2023-10-19T07:40:56;5.60;99.90
44886;DHT22;36669;51.428;21.162;2023-10-19T07:43:22;5.60;99.90
44886;DHT22;36669;51.428;21.162;2023-10-19T07:45:50;5.70;99.90
44886;DHT22;36669;51.428;21.162;2023-10-19T07:48:18;5.70;99.90
44886;DHT22;36669;51.428;21.162;2023-10-19T07:50:46;5.80;99.90
44886;DHT22;36669;51.428;21.162;2023-10-19T07:53:13;5.80;99.90
44886;DHT22;36669;51.428;21.162;2023-10-19T07:55:39;5.80;99.90
44886;DHT22;36669;51.428;21.162;2023-10-19T07:58:07;5.90;99.90
44886;DHT22;36669;51.428;21.162;2023-10-19T08:00:34;6.10;99.90
44886;DHT22;36669;51.428;21.162;2023-10-19T08:03:01;6.10;99.90
44886;DHT22;36669;51.428;21.162;2023-10-19T08:05:28;6.10;99.90
44886;DHT22;36669;51.428;21.162;2023-10-19T08:07:56;6.10;99.90
44886;DHT22;36669;51.428;21.162;2023-10-19T08:10:26;6.00;99.90
44886;DHT22;36669;51.428;21.162;2023-10-19T08:12:53;6.20;99.90
44886;DHT22;36669;51.428;21.162;2023-10-19T08:15:21;6.30;99.90
44886;DHT22;36669;51.428;21.162;2023-10-19T08:17:49;6.30;99.90
44886;DHT22;36669;51.428;21.162;2023-10-19T08:20:18;6.50;99.90
44886;DHT22;36669;51.428;21.162;2023-10-19T08:23:12;6.70;99.90
44886;DHT22;36669;51.428;21.162;2023-10-19T08:25:54;6.80;99.90
44886;DHT22;36669;51.428;21.162;2023-10-19T08:28:21;6.90;99.90
44886;DHT22;36669;51.428;21.162;2023-10-19T08:30:49;6.80;99.90
44886;DHT22;36669;51.428;21.162;2023-10-19T08:33:23;7.00;99.90
44886;DHT22;36669;51.428;21.162;2023-10-19T08:35:54;7.20;99.90
44886;DHT22;36669;51.428;21.162;2023-10-19T08:38:22;7.20;99.90
44886;DHT22;36669;51.428;21.162;2023-10-19T08:40:50;7.40;99.90
44886;DHT22;36669;51.428;21.162;2023-10-19T08:43:18;7.50;99.90
44886;DHT22;36669;51.428;21.162;2023-10-19T08:45:45;7.70;99.90
44886;DHT22;36669;51.428;21.162;2023-10-19T08:48:13;7.80;99.90
44886;DHT22;36669;51.428;21.162;2023-10-19T08:50:40;7.90;99.90
44886;DHT22;36669;51.428;21.162;2023-10-19T08:53:08;7.90;99.90
44886;DHT22;36669;51.428;21.162;2023-10-19T08:55:34;8.00;99.90
44886;DHT22;36669;51.428;21.162;2023-10-19T08:58:00;8.10;99.90
44886;DHT22;36669;51.428;21.162;2023-10-19T09:00:27;8.20;99.90
44886;DHT22;36669;51.428;21.162;2023-10-19T09:02:55;8.30;99.90
44886;DHT22;36669;51.428;21.162;2023-10-19T09:05:22;8.40;99.90
44886;DHT22;36669;51.428;21.162;2023-10-19T09:07:50;8.60;99.90
44886;DHT22;36669;51.428;21.162;2023-10-19T09:10:26;8.60;99.90
44886;DHT22;36669;51.428;21.162;2023-10-19T09:13:07;8.60;99.90
44886;DHT22;36669;51.428;21.162;2023-10-19T09:15:41;8.60;99.90
44886;DHT22;36669;51.428;21.162;2023-10-19T09:18:22;8.70;99.90
44886;DHT22;36669;51.428;21.162;2023-10-19T09:20:52;8.80;99.90
44886;DHT22;36669;51.428;21.162;2023-10-19T09:23:23;8.90;99.90
44886;DHT22;36669;51.428;21.162;2023-10-19T09:25:51;9.00;99.90
44886;DHT22;36669;51.428;21.162;2023-10-19T09:28:23;9.10;99.90
44886;DHT22;36669;51.428;21.162;2023-10-19T09:30:52;9.20;99.90
44886;DHT22;36669;51.428;21.162;2023-10-19T09:33:21;9.30;99.90
44886;DHT22;36669;51.428;21.162;2023-10-19T09:35:50;9.30;99.90
44886;DHT22;36669;51.428;21.162;2023-10-19T09:38:20;9.20;99.90
44886;DHT22;36669;51.428;21.162;2023-10-19T09:40:55;9.20;99.90
44886;DHT22;36669;51.428;21.162;2023-10-19T09:46:01;9.00;99.90
44886;DHT22;36669;51.428;21.162;2023-10-19T09:48:30;9.00;99.90
44886;DHT22;36669;51.428;21.162;2023-10-19T09:51:02;9.10;99.90
44886;DHT22;36669;51.428;21.162;2023-10-19T09:53:32;9.10;99.90
44886;DHT22;36669;51.428;21.162;2023-10-19T09:56:06;9.10;99.90
44886;DHT22;36669;51.428;21.162;2023-10-19T09:58:46;9.00;99.90
44886;DHT22;36669;51.428;21.162;2023-10-19T10:01:17;9.20;99.90
44886;DHT22;36669;51.428;21.162;2023-10-19T10:03:53;9.40;99.90
44886;DHT22;36669;51.428;21.162;2023-10-19T10:09:26;9.60;99.90
44886;DHT22;36669;51.428;21.162;2023-10-19T10:11:55;10.00;99.90
44886;DHT22;36669;51.428;21.162;2023-10-19T10:14:23;10.10;99.90
44886;DHT22;36669;51.428;21.162;2023-10-19T10:17:02;10.30;99.90
44886;DHT22;36669;51.428;21.162;2023-10-19T10:19:29;10.40;99.90
44886;DHT22;36669;51.428;21.162;2023-10-19T10:22:27;10.50;99.90
44886;DHT22;36669;51.428;21.162;2023-10-19T10:24:57;10.60;99.90
44886;DHT22;36669;51.428;21.162;2023-10-19T10:27:25;10.90;99.90
44886;DHT22;36669;51.428;21.162;2023-10-19T10:29:59;11.20;99.90
44886;DHT22;36669;51.428;21.162;2023-10-19T10:32:50;11.40;99.90
44886;DHT22;36669;51.428;21.162;2023-10-19T10:38:10;11.00;99.90
44886;DHT22;36669;51.428;21.162;2023-10-19T10:40:50;10.80;99.90
44886;DHT22;36669;51.428;21.162;2023-10-19T10:43:20;10.70;99.90
44886;DHT22;36669;51.428;21.162;2023-10-19T10:45:48;10.50;99.90
44886;DHT22;36669;51.428;21.162;2023-10-19T10:48:16;10.40;99.90
44886;DHT22;36669;51.428;21.162;2023-10-19T10:50:46;10.10;99.90
44886;DHT22;36669;51.428;21.162;2023-10-19T10:53:17;10.10;99.90
44886;DHT22;36669;51.428;21.162;2023-10-19T10:55:45;10.10;99.90
44886;DHT22;36669;51.428;21.162;2023-10-19T10:58:20;10.00;99.90
44886;DHT22;36669;51.428;21.162;2023-10-19T11:00:47;9.90;99.90
44886;DHT22;36669;51.428;21.162;2023-10-19T11:03:16;10.00;99.90
44886;DHT22;36669;51.428;21.162;2023-10-19T11:05:44;10.00;99.90
44886;DHT22;36669;51.428;21.162;2023-10-19T11:08:18;10.10;99.90
44886;DHT22;36669;51.428;21.162;2023-10-19T11:10:49;10.10;99.90
44886;DHT22;36669;51.428;21.162;2023-10-19T11:13:23;10.20;99.90
44886;DHT22;36669;51.428;21.162;2023-10-19T11:15:53;10.10;99.90
44886;DHT22;36669;51.428;21.162;2023-10-19T11:18:39;10.10;99.90
44886;DHT22;36669;51.428;21.162;2023-10-19T11:21:10;10.20;99.90
44886;DHT22;36669;51.428;21.162;2023-10-19T11:23:49;10.20;99.90
44886;DHT22;36669;51.428;21.162;2023-10-19T11:26:21;10.20;99.90
44886;DHT22;36669;51.428;21.162;2023-10-19T11:28:59;10.30;99.90
44886;DHT22;36669;51.428;21.162;2023-10-19T11:31:26;10.20;99.90
44886;DHT22;36669;51.428;21.162;2023-10-19T11:33:55;10.20;99.90
44886;DHT22;36669;51.428;21.162;2023-10-19T11:36:24;10.30;99.90
44886;DHT22;36669;51.428;21.162;2023-10-19T11:38:53;10.20;99.90
44886;DHT22;36669;51.428;21.162;2023-10-19T11:41:21;10.20;99.90
44886;DHT22;36669;51.428;21.162;2023-10-19T11:43:49;10.30;99.90
44886;DHT22;36669;51.428;21.162;2023-10-19T11:46:17;10.30;99.90
44886;DHT22;36669;51.428;21.162;2023-10-19T11:48:44;10.30;99.90
44886;DHT22;36669;51.428;21.162;2023-10-19T11:51:11;10.40;99.90
44886;DHT22;36669;51.428;21.162;2023-10-19T11:53:38;10.50;99.90
44886;DHT22;36669;51.428;21.162;2023-10-19T11:56:07;10.50;99.90
44886;DHT22;36669;51.428;21.162;2023-10-19T11:58:39;10.50;99.90
44886;DHT22;36669;51.428;21.162;2023-10-19T12:01:16;10.40;99.90
44886;DHT22;36669;51.428;21.162;2023-10-19T12:03:43;10.40;99.90
44886;DHT22;36669;51.428;21.162;2023-10-19T12:06:12;10.40;99.90
44886;DHT22;36669;51.428;21.162;2023-10-19T12:08:40;10.30;99.90
44886;DHT22;36669;51.428;21.162;2023-10-19T12:11:07;10.30;99.90
44886;DHT22;36669;51.428;21.162;2023-10-19T12:13:47;10.30;99.90
44886;DHT22;36669;51.428;21.162;2023-10-19T12:16:16;10.20;99.90
44886;DHT22;36669;51.428;21.162;2023-10-19T12:18:43;10.20;99.90
44886;DHT22;36669;51.428;21.162;2023-10-19T12:21:11;10.20;99.90
44886;DHT22;36669;51.428;21.162;2023-10-19T12:23:42;10.20;99.90
44886;DHT22;36669;51.428;21.162;2023-10-19T12:26:10;10.20;99.90
44886;DHT22;36669;51.428;21.162;2023-10-19T12:28:40;10.30;99.90
44886;DHT22;36669;51.428;21.162;2023-10-19T12:31:09;10.20;99.90
44886;DHT22;36669;51.428;21.162;2023-10-19T12:33:39;10.20;99.90
44886;DHT22;36669;51.428;21.162;2023-10-19T12:36:07;10.30;99.90
44886;DHT22;36669;51.428;21.162;2023-10-19T12:38:53;10.30;99.90
44886;DHT22;36669;51.428;21.162;2023-10-19T12:41:23;10.30;99.90
44886;DHT22;36669;51.428;21.162;2023-10-19T12:43:52;10.30;99.90
44886;DHT22;36669;51.428;21.162;2023-10-19T12:46:26;10.40;99.90
44886;DHT22;36669;51.428;21.162;2023-10-19T12:48:54;10.40;99.90
44886;DHT22;36669;51.428;21.162;2023-10-19T12:51:24;10.50;99.90
44886;DHT22;36669;51.428;21.162;2023-10-19T12:53:54;10.50;99.90
44886;DHT22;36669;51.428;21.162;2023-10-19T12:56:24;10.50;99.90
44886;DHT22;36669;51.428;21.162;2023-10-19T12:58:52;10.50;99.90
44886;DHT22;36669;51.428;21.162;2023-10-19T13:01:21;10.40;99.90
44886;DHT22;36669;51.428;21.162;2023-10-19T13:03:48;10.40;99.90
44886;DHT22;36669;51.428;21.162;2023-10-19T13:06:19;10.30;99.90
44886;DHT22;36669;51.428;21.162;2023-10-19T13:08:47;10.30;99.90
44886;DHT22;36669;51.428;21.162;2023-10-19T13:11:14;10.20;99.90
44886;DHT22;36669;51.428;21.162;2023-10-19T13:13:41;10.30;99.90
44886;DHT22;36669;51.428;21.162;2023-10-19T13:16:08;10.20;99.90
44886;DHT22;36669;51.428;21.162;2023-10-19T13:18:35;10.20;99.90
44886;DHT22;36669;51.428;21.162;2023-10-19T13:21:02;10.20;99.90
44886;DHT22;36669;51.428;21.162;2023-10-19T13:23:32;10.10;99.90
44886;DHT22;36669;51.428;21.162;2023-10-19T13:26:00;10.10;99.90
44886;DHT22;36669;51.428;21.162;2023-10-19T13:28:42;10.00;99.90
44886;DHT22;36669;51.428;21.162;2023-10-19T13:31:11;10.00;99.90
44886;DHT22;36669;51.428;21.162;2023-10-19T13:33:39;10.00;99.90
44886;DHT22;36669;51.428;21.162;2023-10-19T13:36:12;9.90;99.90
44886;DHT22;36669;51.428;21.162;2023-10-19T13:38:43;9.90;99.90
44886;DHT22;36669;51.428;21.162;2023-10-19T13:41:11;9.90;99.90
44886;DHT22;36669;51.428;21.162;2023-10-19T13:43:39;9.80;99.90
44886;DHT22;36669;51.428;21.162;2023-10-19T13:46:07;9.70;99.90
44886;DHT22;36669;51.428;21.162;2023-10-19T13:48:34;9.70;99.90
44886;DHT22;36669;51.428;21.162;2023-10-19T13:51:03;9.70;99.90
44886;DHT22;36669;51.428;21.162;2023-10-19T13:53:40;9.70;99.90
44886;DHT22;36669;51.428;21.162;2023-10-19T13:56:10;9.60;99.90
44886;DHT22;36669;51.428;21.162;2023-10-19T13:58:36;9.60;99.90
44886;DHT22;36669;51.428;21.162;2023-10-19T14:01:07;9.60;99.90
44886;DHT22;36669;51.428;21.162;2023-10-19T14:03:37;9.50;99.90
44886;DHT22;36669;51.428;21.162;2023-10-19T14:06:16;9.50;99.90
44886;DHT22;36669;51.428;21.162;2023-10-19T14:08:44;9.40;99.90
44886;DHT22;36669;51.428;21.162;2023-10-19T14:11:13;9.40;99.90
44886;DHT22;36669;51.428;21.162;2023-10-19T14:13:41;9.30;99.90
44886;DHT22;36669;51.428;21.162;2023-10-19T14:16:09;9.30;99.90
44886;DHT22;36669;51.428;21.162;2023-10-19T14:18:36;9.20;99.90
44886;DHT22;36669;51.428;21.162;2023-10-19T14:21:15;9.20;99.90
44886;DHT22;36669;51.428;21.162;2023-10-19T14:23:43;9.10;99.90
44886;DHT22;36669;51.428;21.162;2023-10-19T14:26:11;9.10;99.90
44886;DHT22;36669;51.428;21.162;2023-10-19T14:28:39;9.10;99.90
44886;DHT22;36669;51.428;21.162;2023-10-19T14:31:09;9.10;99.90
44886;DHT22;36669;51.428;21.162;2023-10-19T14:33:38;9.10;99.90
44886;DHT22;36669;51.428;21.162;2023-10-19T14:36:06;9.00;99.90
44886;DHT22;36669;51.428;21.162;2023-10-19T14:38:34;9.00;99.90
44886;DHT22;36669;51.428;21.162;2023-10-19T14:41:02;9.00;99.90
44886;DHT22;36669;51.428;21.162;2023-10-19T14:43:29;9.00;99.90
44886;DHT22;36669;51.428;21.162;2023-10-19T14:45:57;9.00;99.90
44886;DHT22;36669;51.428;21.162;2023-10-19T14:48:26;8.90;99.90
44886;DHT22;36669;51.428;21.162;2023-10-19T14:50:56;8.90;99.90
44886;DHT22;36669;51.428;21.162;2023-10-19T14:53:25;8.80;99.90
44886;DHT22;36669;51.428;21.162;2023-10-19T14:55:56;8.80;99.90
44886;DHT22;36669;51.428;21.162;2023-10-19T14:58:27;8.70;99.90
44886;DHT22;36669;51.428;21.162;2023-10-19T15:00:56;8.70;99.90
44886;DHT22;36669;51.428;21.162;2023-10-19T15:03:24;8.70;99.90
44886;DHT22;36669;51.428;21.162;2023-10-19T15:05:52;8.70;99.90
44886;DHT22;36669;51.428;21.162;2023-10-19T15:08:20;8.70;99.90
44886;DHT22;36669;51.428;21.162;2023-10-19T15:10:47;8.70;99.90
44886;DHT22;36669;51.428;21.162;2023-10-19T15:13:13;8.70;99.90
44886;DHT22;36669;51.428;21.162;2023-10-19T15:15:44;8.60;99.90
44886;DHT22;36669;51.428;21.162;2023-10-19T15:18:12;8.60;99.90
44886;DHT22;36669;51.428;21.162;2023-10-19T15:20:40;8.60;99.90
44886;DHT22;36669;51.428;21.162;2023-10-19T15:23:07;8.60;99.90
44886;DHT22;36669;51.428;21.162;2023-10-19T15:25:33;8.50;99.90
44886;DHT22;36669;51.428;21.162;2023-10-19T15:27:59;8.50;99.90
44886;DHT22;36669;51.428;21.162;2023-10-19T15:30:26;8.50;99.90
44886;DHT22;36669;51.428;21.162;2023-10-19T15:32:53;8.50;99.90
44886;DHT22;36669;51.428;21.162;2023-10-19T15:35:19;8.50;99.90
44886;DHT22;36669;51.428;21.162;2023-10-19T15:37:53;8.40;99.90
44886;DHT22;36669;51.428;21.162;2023-10-19T15:40:23;8.40;99.90
44886;DHT22;36669;51.428;21.162;2023-10-19T15:42:50;8.40;99.90
44886;DHT22;36669;51.428;21.162;2023-10-19T15:45:20;8.40;99.90
44886;DHT22;36669;51.428;21.162;2023-10-19T15:47:48;8.40;99.90
44886;DHT22;36669;51.428;21.162;2023-10-19T15:50:17;8.40;99.90
44886;DHT22;36669;51.428;21.162;2023-10-19T15:52:44;8.40;99.90
44886;DHT22;36669;51.428;21.162;2023-10-19T15:55:12;8.30;99.90
44886;DHT22;36669;51.428;21.162;2023-10-19T15:57:40;8.30;99.90